Time;durP1;ratioP1;P1;durP2;ratioP2;P2;SDS_P1;SDS_P2;PMS_P1;PMS_P2;Temp;Humidity;BMP_temperature;BMP_pressure;BME280_temperature;BME280_humidity;BME280_pressure;Samples;Min_cycle;Max_cycle;Signal;HPM_P1;HPM_P2
2024/01/19 00:00:43;;;;;;;23.55;9.73;;;;;;;7.21;46.55;101189.25;4958252;28;20562;-63
2024/01/19 00:03:08;;;;;;;25.45;10.07;;;;;;;7.17;47.56;101190.44;4938605;29;20494;-63
2024/01/19 00:05:34;;;;;;;27.70;10.80;;;;;;;7.15;47.33;101194.97;4947954;28;20051;-63
2024/01/19 00:07:59;;;;;;;30.15;11.70;;;;;;;7.12;46.91;101191.69;4954611;28;20067;-63
2024/01/19 00:10:25;;;;;;;25.67;9.75;;;;;;;7.15;46.85;101200.31;4955618;28;20077;-63
2024/01/19 00:12:50;;;;;;;24.92;11.35;;;;;;;7.13;46.32;101199.56;4954472;28;20063;-63
2024/01/19 00:15:15;;;;;;;28.00;10.90;;;;;;;7.17;47.56;101201.09;4955601;28;20130;-63
2024/01/19 00:17:41;;;;;;;24.73;10.23;;;;;;;7.16;46.84;101207.34;4955821;28;20095;-63
2024/01/19 00:20:10;;;;;;;26.38;10.77;;;;;;;7.18;46.30;101212.56;4938386;29;20490;-63
2024/01/19 00:22:35;;;;;;;34.47;10.98;;;;;;;7.15;47.46;101207.44;4951651;29;20078;-63
2024/01/19 00:25:02;;;;;;;34.22;11.27;;;;;;;7.12;46.74;101213.81;4954196;28;20063;-63
2024/01/19 00:27:29;;;;;;;26.02;9.90;;;;;;;7.11;46.51;101222.78;4973246;28;20066;-63
2024/01/19 00:29:54;;;;;;;24.42;10.13;;;;;;;7.09;47.74;101219.34;4973503;28;20043;-64
2024/01/19 00:32:22;;;;;;;29.42;11.20;;;;;;;7.10;46.63;101221.06;4972868;28;20049;-63
2024/01/19 00:34:47;;;;;;;28.38;10.80;;;;;;;7.08;47.78;101220.31;4973473;28;20035;-63
2024/01/19 00:37:13;;;;;;;28.67;10.95;;;;;;;7.11;46.61;101233.44;4974617;28;20086;-63
2024/01/19 00:39:39;;;;;;;29.25;10.93;;;;;;;7.07;47.27;101231.91;4973354;28;20498;-63
2024/01/19 00:42:05;;;;;;;26.38;10.90;;;;;;;7.10;47.70;101237.03;4974429;28;20042;-63
2024/01/19 00:44:30;;;;;;;29.10;9.48;;;;;;;7.07;47.25;101236.38;4974560;28;20118;-63
2024/01/19 00:46:55;;;;;;;27.65;10.85;;;;;;;7.04;46.97;101238.28;4974055;28;20556;-66
2024/01/19 00:49:21;;;;;;;25.52;9.77;;;;;;;7.06;47.46;101240.00;4974350;28;20402;-64
2024/01/19 00:51:46;;;;;;;28.27;11.45;;;;;;;7.04;48.02;101237.41;4974363;28;20030;-63
2024/01/19 00:54:13;;;;;;;32.03;10.90;;;;;;;7.05;47.45;101249.78;4956749;28;20022;-63
2024/01/19 00:56:38;;;;;;;32.38;11.73;;;;;;;7.07;47.97;101244.34;4973166;28;20418;-63
2024/01/19 00:59:03;;;;;;;23.35;10.65;;;;;;;7.05;47.83;101247.13;4973070;28;20042;-63
2024/01/19 01:01:29;;;;;;;27.15;10.50;;;;;;;7.02;48.13;101244.66;4975293;28;20038;-71
2024/01/19 01:03:55;;;;;;;25.60;10.38;;;;;;;7.06;47.37;101251.50;4974464;28;20062;-71
2024/01/19 01:06:20;;;;;;;27.65;11.77;;;;;;;7.06;48.00;101262.16;4975890;28;20031;-71
2024/01/19 01:08:46;;;;;;;28.30;11.43;;;;;;;7.05;47.74;101260.44;4975807;28;20033;-71
2024/01/19 01:11:11;;;;;;;33.88;9.73;;;;;;;7.10;46.95;101258.34;4975926;28;20027;-72
2024/01/19 01:13:36;;;;;;;28.63;11.43;;;;;;;7.12;47.08;101261.75;4974242;28;20138;-71
2024/01/19 01:16:02;;;;;;;31.10;11.20;;;;;;;7.16;46.95;101260.63;4974077;28;20031;-71
2024/01/19 01:18:27;;;;;;;30.70;11.25;;;;;;;7.19;47.41;101256.91;4974031;28;20030;-71
2024/01/19 01:20:53;;;;;;;31.48;10.95;;;;;;;7.22;47.91;101262.91;4973893;28;20119;-71
2024/01/19 01:23:18;;;;;;;26.38;10.65;;;;;;;7.25;48.08;101273.38;4975297;28;20033;-72
2024/01/19 01:25:44;;;;;;;28.90;10.95;;;;;;;7.26;48.14;101269.72;4957848;28;20151;-71
2024/01/19 01:28:09;;;;;;;30.17;11.93;;;;;;;7.29;47.22;101268.69;4973925;28;20050;-72
2024/01/19 01:30:35;;;;;;;33.38;11.25;;;;;;;7.29;47.21;101266.88;4974095;28;20534;-72
2024/01/19 01:33:00;;;;;;;27.25;11.35;;;;;;;7.33;47.04;101276.41;4976002;28;20034;-71
2024/01/19 01:35:25;;;;;;;23.88;10.73;;;;;;;7.34;48.14;101272.75;4974170;28;20042;-71
2024/01/19 01:37:51;;;;;;;27.38;10.48;;;;;;;7.39;48.00;101276.00;4974342;28;20037;-71
2024/01/19 01:40:16;;;;;;;25.48;10.48;;;;;;;7.41;47.19;101284.75;4973958;28;20026;-71
2024/01/19 01:42:42;;;;;;;33.95;9.60;;;;;;;7.40;48.05;101285.69;4976931;28;20058;-72
2024/01/19 01:45:08;;;;;;;30.27;11.88;;;;;;;7.42;48.19;101290.94;4978018;28;20031;-71
2024/01/19 01:47:34;;;;;;;33.25;10.70;;;;;;;7.44;47.48;101291.69;4977880;28;20034;-71
2024/01/19 01:49:59;;;;;;;31.25;10.38;;;;;;;7.43;47.79;101288.16;4977894;28;20061;-71
2024/01/19 01:52:25;;;;;;;30.95;10.15;;;;;;;7.44;48.04;101303.22;4977957;28;20105;-71
2024/01/19 01:54:52;;;;;;;23.60;10.65;;;;;;;7.49;48.43;101303.78;4977583;28;20398;-71
2024/01/19 01:57:20;;;;;;;22.98;9.93;;;;;;;7.46;48.17;101298.63;4961682;28;20061;-72
2024/01/19 01:59:46;;;;;;;32.63;9.43;;;;;;;7.49;47.57;101309.09;4977730;28;20057;-72
2024/01/19 02:02:11;;;;;;;28.02;9.80;;;;;;;7.52;47.54;101308.06;4977544;28;20117;-72
2024/01/19 02:04:37;;;;;;;30.38;10.52;;;;;;;7.53;47.23;101313.31;4961433;28;20042;-72
2024/01/19 02:07:03;;;;;;;31.00;10.88;;;;;;;7.57;47.83;101312.13;4977757;28;20482;-72
2024/01/19 02:09:29;;;;;;;31.00;10.50;;;;;;;7.58;47.51;101318.31;4979141;28;20093;-64
2024/01/19 02:11:54;;;;;;;26.80;10.63;;;;;;;7.58;48.02;101313.00;4976239;28;20050;-63
2024/01/19 02:14:19;;;;;;;25.73;10.02;;;;;;;7.58;47.76;101319.19;4975958;28;20035;-63
2024/01/19 02:16:45;;;;;;;27.10;10.98;;;;;;;7.57;48.34;101313.94;4977070;28;20042;-63
2024/01/19 02:19:10;;;;;;;28.60;10.85;;;;;;;7.62;48.02;101326.03;4976054;28;20038;-64
2024/01/19 02:21:36;;;;;;;23.25;10.18;;;;;;;7.66;48.20;101318.69;4976004;28;20026;-63
2024/01/19 02:24:03;;;;;;;31.42;10.10;;;;;;;7.68;47.34;101319.44;4959540;28;20108;-63
2024/01/19 02:26:29;;;;;;;23.65;10.63;;;;;;;7.70;47.63;101324.69;4975450;28;20387;-63
2024/01/19 02:28:54;;;;;;;25.60;9.75;;;;;;;7.74;47.43;101323.50;4977284;28;20058;-65
2024/01/19 02:31:20;;;;;;;27.50;9.98;;;;;;;7.73;47.87;101317.34;4977251;28;20050;-63
2024/01/19 02:33:45;;;;;;;34.67;10.15;;;;;;;7.72;48.15;101320.09;4975563;28;20046;-63
2024/01/19 02:36:10;;;;;;;33.03;10.55;;;;;;;7.72;47.13;101314.78;4976051;28;20052;-63
2024/01/19 02:38:36;;;;;;;33.50;11.68;;;;;;;7.69;47.87;101314.97;4975249;28;20043;-63
2024/01/19 02:41:01;;;;;;;29.88;10.80;;;;;;;7.73;47.23;101327.16;4975573;28;20042;-63
2024/01/19 02:43:26;;;;;;;26.65;10.80;;;;;;;7.73;47.18;101317.34;4959297;28;20541;-63
2024/01/19 02:45:52;;;;;;;27.02;11.65;;;;;;;7.73;47.17;101327.16;4976922;28;20113;-63
2024/01/19 02:48:17;;;;;;;25.30;9.90;;;;;;;7.72;48.09;101331.63;4976581;28;20030;-63
2024/01/19 02:50:42;;;;;;;24.55;10.60;;;;;;;7.72;47.82;101333.44;4975437;28;20039;-63
2024/01/19 02:53:08;;;;;;;22.80;9.05;;;;;;;7.74;47.78;101339.50;4974903;28;20042;-63
2024/01/19 02:55:33;;;;;;;24.23;9.45;;;;;;;7.75;47.33;101338.56;4974570;28;20498;-63
2024/01/19 02:57:59;;;;;;;22.23;9.18;;;;;;;7.79;48.15;101348.09;4976662;28;20107;-63
2024/01/19 03:00:24;;;;;;;22.10;8.68;;;;;;;7.75;48.22;101343.91;4975145;28;20517;-64
2024/01/19 03:02:50;;;;;;;21.85;10.07;;;;;;;7.72;48.23;101347.63;4975016;28;20035;-64
2024/01/19 03:05:15;;;;;;;25.88;9.70;;;;;;;7.71;47.58;101350.38;4974993;28;20074;-63
2024/01/19 03:07:41;;;;;;;25.48;8.77;;;;;;;7.68;47.78;101355.94;4958967;28;20027;-63
2024/01/19 03:10:07;;;;;;;26.45;9.00;;;;;;;7.62;48.06;101350.00;4976390;28;20174;-63
2024/01/19 03:12:32;;;;;;;20.90;8.23;;;;;;;7.62;48.56;101363.34;4959061;28;20106;-63
2024/01/19 03:14:57;;;;;;;16.15;7.75;;;;;;;7.57;47.86;101359.25;4974017;28;20068;-63
2024/01/19 03:17:23;;;;;;;22.17;8.93;;;;;;;7.53;48.49;101363.94;4974970;28;20039;-63
2024/01/19 03:19:48;;;;;;;22.27;7.80;;;;;;;7.51;48.55;101354.31;4958674;28;20495;-63
2024/01/19 03:22:14;;;;;;;18.98;7.60;;;;;;;7.48;48.56;101359.84;4958670;28;20054;-63
2024/01/19 03:24:39;;;;;;;17.38;7.78;;;;;;;7.46;48.03;101362.59;4974719;28;20166;-63
2024/01/19 03:27:04;;;;;;;14.32;7.90;;;;;;;7.41;48.14;101366.50;4974459;28;20510;-63
2024/01/19 03:29:30;;;;;;;24.98;8.18;;;;;;;7.43;48.83;101372.59;4974561;28;20089;-63
2024/01/19 03:31:55;;;;;;;24.52;7.93;;;;;;;7.43;48.08;101367.25;4974796;28;20045;-63
2024/01/19 03:34:21;;;;;;;26.08;9.27;;;;;;;7.44;48.09;101383.16;4974664;28;20043;-63
2024/01/19 03:36:46;;;;;;;20.15;7.35;;;;;;;7.45;48.32;101392.84;4974469;28;20494;-63
2024/01/19 03:39:12;;;;;;;19.13;8.13;;;;;;;7.44;48.07;101390.31;4973786;28;20054;-63
2024/01/19 03:41:38;;;;;;;23.17;7.93;;;;;;;7.44;47.70;101391.16;4974515;28;20093;-63
2024/01/19 03:44:03;;;;;;;21.67;8.38;;;;;;;7.40;47.71;101384.28;4974574;28;20070;-63
2024/01/19 03:46:28;;;;;;;18.70;8.77;;;;;;;7.41;47.95;101396.69;4974377;28;20043;-63
2024/01/19 03:48:54;;;;;;;13.75;6.80;;;;;;;7.42;48.43;101395.75;4958112;28;20062;-63
2024/01/19 03:51:19;;;;;;;15.63;7.55;;;;;;;7.42;47.90;101403.75;4975728;28;20502;-63
2024/01/19 03:53:44;;;;;;;21.50;8.52;;;;;;;7.37;47.92;101405.81;4975733;28;20379;-63
2024/01/19 03:56:10;;;;;;;18.55;6.93;;;;;;;7.35;47.51;101401.53;4975385;28;20039;-63
2024/01/19 03:58:36;;;;;;;19.67;8.35;;;;;;;7.31;47.78;101395.56;4975436;28;20039;-63
2024/01/19 04:01:04;;;;;;;21.60;8.52;;;;;;;7.37;47.63;101405.81;4975442;28;20043;-63
2024/01/19 04:03:30;;;;;;;23.20;8.60;;;;;;;7.34;47.73;101400.66;4974015;28;20030;-63
2024/01/19 04:05:55;;;;;;;20.88;8.25;;;;;;;7.31;48.54;101406.22;4956888;28;20070;-63
2024/01/19 04:08:21;;;;;;;24.85;8.98;;;;;;;7.34;48.26;101418.47;4956429;28;20116;-63
2024/01/19 04:10:46;;;;;;;20.75;7.78;;;;;;;7.32;48.93;101418.56;4973345;28;20108;-63
2024/01/19 04:13:11;;;;;;;22.33;9.48;;;;;;;7.27;48.57;101418.00;4974244;28;20035;-63
2024/01/19 04:15:37;;;;;;;16.38;6.90;;;;;;;7.28;48.34;101419.72;4973936;28;20038;-63
2024/01/19 04:18:02;;;;;;;21.63;7.00;;;;;;;7.30;49.01;101424.94;4975110;28;20523;-63
2024/01/19 04:20:28;;;;;;;16.10;7.18;;;;;;;7.27;48.21;101423.31;4973822;28;20030;-63
2024/01/19 04:22:53;;;;;;;21.98;7.28;;;;;;;7.26;47.93;101418.94;4973333;28;20388;-63
2024/01/19 04:25:18;;;;;;;18.67;6.78;;;;;;;7.30;48.87;101428.47;4973710;28;20051;-63
2024/01/19 04:27:44;;;;;;;13.82;6.97;;;;;;;7.31;47.78;101422.19;4957523;28;20047;-63
2024/01/19 04:30:09;;;;;;;15.68;6.07;;;;;;;7.31;48.13;101422.19;4975037;28;20031;-63
2024/01/19 04:32:35;;;;;;;15.63;6.30;;;;;;;7.33;48.59;101424.75;4973310;28;20066;-63
2024/01/19 04:35:02;;;;;;;13.23;6.57;;;;;;;7.35;48.06;101433.50;4973644;28;20039;-63
2024/01/19 04:37:28;;;;;;;17.15;7.28;;;;;;;7.33;48.44;101435.41;4974697;28;20402;-63
2024/01/19 04:39:53;;;;;;;14.15;6.00;;;;;;;7.31;47.92;101443.50;4973624;28;20548;-63
2024/01/19 04:42:19;;;;;;;13.57;5.43;;;;;;;7.28;48.98;101441.03;4957399;28;20035;-64
2024/01/19 04:44:44;;;;;;;16.75;6.03;;;;;;;7.29;48.05;101445.38;4973241;28;20049;-64
2024/01/19 04:47:10;;;;;;;13.95;7.18;;;;;;;7.30;48.18;101443.59;4974507;28;20104;-63
2024/01/19 04:49:35;;;;;;;16.00;6.22;;;;;;;7.31;48.22;101438.19;4974451;28;20037;-63
2024/01/19 04:52:01;;;;;;;11.77;5.65;;;;;;;7.34;47.70;101443.28;4957004;28;20034;-63
2024/01/19 04:54:26;;;;;;;11.63;5.82;;;;;;;7.37;47.90;101443.09;4957025;28;20038;-63
2024/01/19 04:56:51;;;;;;;15.02;5.88;;;;;;;7.34;48.33;101437.97;4956906;28;20046;-63
2024/01/19 04:59:17;;;;;;;14.98;5.43;;;;;;;7.31;48.25;101438.19;4957230;28;20113;-63
2024/01/19 05:01:42;;;;;;;12.40;7.30;;;;;;;7.33;47.59;101454.06;4957010;28;20109;-63
2024/01/19 05:04:07;;;;;;;12.40;5.85;;;;;;;7.29;48.31;101455.19;4956738;28;20067;-64
2024/01/19 05:06:33;;;;;;;14.45;5.57;;;;;;;7.28;48.24;101454.34;4974380;28;20414;-63
2024/01/19 05:08:58;;;;;;;13.55;5.80;;;;;;;7.26;48.47;101471.38;4973036;28;20124;-63
2024/01/19 05:11:23;;;;;;;18.85;6.32;;;;;;;7.22;47.95;101469.84;4941041;28;20042;-63
2024/01/19 05:13:49;;;;;;;16.00;7.13;;;;;;;7.21;48.03;101474.31;4957025;28;20031;-63
2024/01/19 05:16:15;;;;;;;14.07;6.07;;;;;;;7.18;48.78;101466.50;4972900;28;20047;-63
2024/01/19 05:18:40;;;;;;;21.33;7.25;;;;;;;7.21;48.22;101474.31;4973773;28;20038;-64
2024/01/19 05:21:06;;;;;;;13.43;6.22;;;;;;;7.21;47.66;101479.63;4957417;28;20147;-63
2024/01/19 05:23:31;;;;;;;12.38;5.45;;;;;;;7.18;47.65;101489.59;4973790;28;20039;-63
2024/01/19 05:25:56;;;;;;;17.88;6.68;;;;;;;7.14;48.74;101488.94;4957155;28;20086;-63
2024/01/19 05:28:23;;;;;;;18.17;6.47;;;;;;;7.14;48.69;101494.28;4972654;28;20066;-63
2024/01/19 05:30:49;;;;;;;20.40;7.60;;;;;;;7.13;48.40;101495.22;4972972;28;20039;-63
2024/01/19 05:33:15;;;;;;;15.35;6.13;;;;;;;7.11;48.26;101494.47;4972976;28;20027;-63
2024/01/19 05:35:40;;;;;;;17.92;7.38;;;;;;;7.12;48.48;101506.81;4972678;28;20045;-63
2024/01/19 05:38:06;;;;;;;16.17;6.43;;;;;;;7.13;47.81;101505.88;4974213;28;20038;-63
2024/01/19 05:40:31;;;;;;;15.32;7.13;;;;;;;7.14;48.72;101504.06;4974605;28;20039;-71
2024/01/19 05:42:57;;;;;;;14.05;6.57;;;;;;;7.13;48.84;101510.34;4973726;28;20042;-72
2024/01/19 05:45:24;;;;;;;16.15;7.05;;;;;;;7.11;48.73;101510.44;4975758;28;20035;-71
2024/01/19 05:47:49;;;;;;;18.40;7.00;;;;;;;7.16;47.64;101518.16;4974449;28;20033;-71
2024/01/19 05:50:14;;;;;;;19.00;6.57;;;;;;;7.15;48.10;101522.63;4958235;28;20042;-72
2024/01/19 05:52:40;;;;;;;18.02;7.05;;;;;;;7.16;48.22;101524.34;4975160;28;20039;-72
2024/01/19 05:55:05;;;;;;;15.52;7.60;;;;;;;7.17;48.52;101536.72;4975113;28;20561;-72
2024/01/19 05:57:31;;;;;;;15.43;7.13;;;;;;;7.18;47.61;101534.88;4974836;28;20151;-72
2024/01/19 05:59:56;;;;;;;21.60;7.88;;;;;;;7.21;48.51;101538.25;4974279;28;20414;-71
2024/01/19 06:02:22;;;;;;;16.48;7.50;;;;;;;7.22;48.46;101539.97;4975219;28;20062;-72
2024/01/19 06:04:47;;;;;;;15.52;6.32;;;;;;;7.26;47.85;101541.50;4974394;28;20038;-71
2024/01/19 06:07:12;;;;;;;16.67;6.40;;;;;;;7.28;47.91;101542.28;4974531;28;20054;-72
2024/01/19 06:09:38;;;;;;;19.75;6.80;;;;;;;7.27;48.54;101543.22;4975373;28;20034;-72
2024/01/19 06:12:05;;;;;;;18.02;8.10;;;;;;;7.22;48.64;101539.97;4959389;28;20035;-72
2024/01/19 06:14:31;;;;;;;18.08;7.30;;;;;;;7.22;48.02;101545.28;4976394;28;20027;-72
2024/01/19 06:16:56;;;;;;;15.25;7.78;;;;;;;7.20;48.01;101547.19;4973330;28;20034;-72
2024/01/19 06:19:21;;;;;;;19.27;6.90;;;;;;;7.18;47.63;101549.06;4958187;28;20031;-72
2024/01/19 06:21:47;;;;;;;17.02;7.03;;;;;;;7.18;48.75;101559.72;4975271;28;20042;-71
2024/01/19 06:24:16;;;;;;;16.30;9.82;;;;;;;7.17;48.14;101563.38;4958148;28;20031;-71
2024/01/19 06:26:45;;;;;;;19.77;7.30;;;;;;;7.21;48.51;101580.00;4975875;28;20042;-72
2024/01/19 06:29:10;;;;;;;20.35;8.48;;;;;;;7.17;47.63;101581.16;4975655;28;20042;-72
2024/01/19 06:31:46;;;;;;;17.08;7.20;;;;;;;7.18;47.64;101585.50;4977670;28;20053;-72
2024/01/19 06:34:12;;;;;;;23.00;8.02;;;;;;;7.15;48.24;101585.69;4977356;28;20487;-72
2024/01/19 06:36:37;;;;;;;19.75;7.38;;;;;;;7.16;48.48;101596.25;4977188;28;20043;-72
2024/01/19 06:39:03;;;;;;;30.67;8.75;;;;;;;7.16;48.87;101612.25;4961173;28;20050;-72
2024/01/19 06:41:28;;;;;;;24.75;7.93;;;;;;;7.14;48.04;101611.50;4977013;28;20553;-69
2024/01/19 06:43:54;;;;;;;21.88;9.10;;;;;;;7.14;47.74;101614.16;4960271;28;20043;-71
2024/01/19 06:46:19;;;;;;;26.95;8.98;;;;;;;7.13;47.64;101609.75;4978348;28;20042;-72
2024/01/19 06:48:45;;;;;;;19.10;7.93;;;;;;;7.17;48.77;101616.66;4976757;28;20521;-72
2024/01/19 06:51:16;;;;;;;23.50;9.18;;;;;;;7.16;47.86;101614.06;4976937;28;20073;-63
2024/01/19 06:53:42;;;;;;;19.35;8.40;;;;;;;7.18;48.76;101629.00;4975251;28;20035;-63
2024/01/19 06:56:08;;;;;;;24.45;8.68;;;;;;;7.17;48.43;101621.97;4976628;28;20058;-64
2024/01/19 06:58:33;;;;;;;28.92;10.00;;;;;;;7.18;48.06;101622.81;4974930;28;20506;-63
2024/01/19 07:00:58;;;;;;;24.38;8.93;;;;;;;7.18;47.79;101626.34;4975200;28;20045;-64
2024/01/19 07:03:24;;;;;;;19.20;8.38;;;;;;;7.19;48.67;101632.53;4958359;28;20039;-63
2024/01/19 07:05:49;;;;;;;27.17;10.25;;;;;;;7.20;48.60;101628.94;4974931;28;20491;-64
2024/01/19 07:08:15;;;;;;;21.30;9.35;;;;;;;7.20;47.70;101632.47;4975384;28;20169;-63
2024/01/19 07:10:40;;;;;;;23.63;9.07;;;;;;;7.19;48.23;101630.72;4974927;28;20043;-63
2024/01/19 07:13:06;;;;;;;26.08;9.60;;;;;;;7.19;48.53;101636.06;4975029;28;20042;-63
2024/01/19 07:15:31;;;;;;;16.27;7.18;;;;;;;7.17;47.76;101647.75;4958853;28;20066;-63
2024/01/19 07:17:57;;;;;;;22.05;9.52;;;;;;;7.19;47.79;101646.72;4974703;28;20405;-63
2024/01/19 07:20:22;;;;;;;23.80;10.13;;;;;;;7.21;47.86;101654.59;4974891;28;20122;-63
2024/01/19 07:22:49;;;;;;;21.35;9.38;;;;;;;7.19;48.21;101652.03;4958740;28;20046;-63
2024/01/19 07:25:14;;;;;;;19.27;8.65;;;;;;;7.18;48.84;101644.97;4974571;28;20169;-64
2024/01/19 07:27:40;;;;;;;20.73;9.60;;;;;;;7.15;47.91;101645.16;4973879;28;20597;-63
2024/01/19 07:30:05;;;;;;;23.50;8.57;;;;;;;7.11;48.51;101664.94;4974627;28;20038;-63
2024/01/19 07:32:31;;;;;;;23.65;9.75;;;;;;;7.11;48.60;101675.59;4976025;28;20034;-64
2024/01/19 07:34:56;;;;;;;21.48;9.75;;;;;;;7.10;47.75;101673.88;4974668;28;20034;-64
2024/01/19 07:37:22;;;;;;;25.35;10.65;;;;;;;6.97;49.00;101656.88;4974582;28;20064;-63
2024/01/19 07:39:47;;;;;;;21.13;9.73;;;;;;;7.09;48.18;101685.44;4975501;28;20061;-63
2024/01/19 07:42:12;;;;;;;27.05;8.98;;;;;;;7.11;48.64;101674.72;4958334;28;20113;-63
2024/01/19 07:44:38;;;;;;;25.75;8.75;;;;;;;7.13;47.49;101687.00;4975536;28;20126;-63
2024/01/19 07:47:04;;;;;;;20.05;8.82;;;;;;;7.14;47.81;101674.56;4974214;28;20509;-63
2024/01/19 07:49:29;;;;;;;26.83;9.38;;;;;;;7.12;48.61;101671.97;4974443;28;20038;-64
2024/01/19 07:51:55;;;;;;;21.65;8.57;;;;;;;7.13;48.74;101678.16;4974162;28;20049;-63
2024/01/19 07:54:20;;;;;;;24.83;9.43;;;;;;;7.12;47.63;101677.28;4975375;28;20030;-63
2024/01/19 07:56:46;;;;;;;21.17;10.00;;;;;;;7.14;48.29;101686.09;4975454;28;20426;-63
2024/01/19 07:59:11;;;;;;;26.63;8.90;;;;;;;7.16;48.69;101694.84;4974098;28;20406;-63
2024/01/19 08:01:39;;;;;;;24.38;10.05;;;;;;;7.16;47.74;101707.28;4974148;28;20127;-64
2024/01/19 08:04:04;;;;;;;27.30;9.95;;;;;;;7.18;47.55;101718.72;4975185;28;20039;-63
2024/01/19 08:06:29;;;;;;;26.35;8.70;;;;;;;7.13;47.83;101716.31;4973740;28;20041;-63
2024/01/19 08:08:56;;;;;;;26.92;11.35;;;;;;;7.18;48.81;101718.72;4974972;28;20066;-63
2024/01/19 08:11:21;;;;;;;24.77;9.75;;;;;;;7.18;47.68;101727.56;4974932;28;20545;-63
2024/01/19 08:13:46;;;;;;;23.67;10.13;;;;;;;7.20;48.41;101728.38;4957692;28;20035;-63
2024/01/19 08:16:12;;;;;;;28.67;10.15;;;;;;;7.21;47.86;101735.41;4974011;28;20034;-63
2024/01/19 08:18:37;;;;;;;27.02;10.30;;;;;;;7.20;48.56;101743.47;4973776;28;20030;-63
2024/01/19 08:21:03;;;;;;;32.55;11.98;;;;;;;7.23;47.57;101735.31;4973605;28;20414;-64
2024/01/19 08:23:29;;;;;;;28.23;11.07;;;;;;;7.26;47.56;101741.31;4974809;28;20035;-63
2024/01/19 08:25:55;;;;;;;21.30;8.65;;;;;;;7.29;48.53;101759.81;4957399;28;20057;-63
2024/01/19 08:28:20;;;;;;;24.70;9.82;;;;;;;7.33;47.66;101755.16;4957376;28;20074;-63
2024/01/19 08:30:46;;;;;;;28.67;10.38;;;;;;;7.35;47.57;101762.13;4957413;28;20601;-63
2024/01/19 08:33:12;;;;;;;32.78;11.77;;;;;;;7.38;48.05;101753.97;4973546;28;20035;-63
2024/01/19 08:35:38;;;;;;;27.08;11.05;;;;;;;7.41;47.95;101761.78;4974630;28;20034;-64
2024/01/19 08:38:04;;;;;;;24.30;10.57;;;;;;;7.42;47.42;101774.19;4974775;28;20045;-63
2024/01/19 08:40:30;;;;;;;31.98;9.90;;;;;;;7.41;48.24;101767.13;4974650;28;20034;-63
2024/01/19 08:42:55;;;;;;;28.85;10.40;;;;;;;7.47;47.33;101779.25;4973573;28;20046;-63
2024/01/19 08:45:21;;;;;;;25.13;10.20;;;;;;;7.48;47.47;101776.47;4973347;28;20031;-63
2024/01/19 08:47:48;;;;;;;25.38;10.20;;;;;;;7.53;48.33;101779.78;4973137;28;20043;-64
2024/01/19 08:50:14;;;;;;;26.75;10.48;;;;;;;7.58;48.05;101775.03;4974458;28;20417;-63
2024/01/19 08:52:39;;;;;;;32.38;10.75;;;;;;;7.62;48.23;101779.22;4972445;28;20039;-64
2024/01/19 08:55:04;;;;;;;26.42;9.80;;;;;;;7.66;48.24;101790.59;4974441;28;20038;-63
2024/01/19 08:57:33;;;;;;;31.20;10.70;;;;;;;7.66;47.67;101790.59;4974300;28;20122;-63
2024/01/19 08:59:58;;;;;;;25.65;9.65;;;;;;;7.63;47.66;101791.63;4968560;28;20120;-63
2024/01/19 09:02:23;;;;;;;24.40;9.65;;;;;;;7.69;47.91;101805.53;4957015;28;20533;-63
2024/01/19 09:04:50;;;;;;;35.15;10.77;;;;;;;7.72;47.09;101797.38;4956901;28;20030;-64
2024/01/19 09:07:15;;;;;;;29.55;10.10;;;;;;;7.77;47.18;101809.50;4956940;28;20552;-63
2024/01/19 09:09:40;;;;;;;24.75;9.75;;;;;;;7.80;47.89;101808.47;4956794;28;20063;-63
2024/01/19 09:12:07;;;;;;;23.40;9.68;;;;;;;7.83;48.13;101808.28;4974088;28;20035;-64
2024/01/19 09:14:32;;;;;;;24.75;9.30;;;;;;;7.85;47.20;101817.06;4972831;28;20077;-63
2024/01/19 09:16:58;;;;;;;34.25;11.90;;;;;;;7.86;47.20;101816.97;4972807;28;20062;-64
2024/01/19 09:19:23;;;;;;;21.92;9.52;;;;;;;7.88;48.03;101822.22;4973148;28;20093;-63
2024/01/19 09:21:50;;;;;;;26.13;11.20;;;;;;;7.89;47.81;101826.63;4972848;28;20479;-64
2024/01/19 09:24:16;;;;;;;28.75;10.93;;;;;;;7.92;47.72;101829.09;4974294;28;20035;-63
2024/01/19 09:26:41;;;;;;;28.88;10.98;;;;;;;7.93;47.57;101836.16;4973986;28;20489;-63
2024/01/19 09:29:10;;;;;;;27.67;11.07;;;;;;;7.96;47.65;101835.97;4972769;28;20117;-63
2024/01/19 09:31:46;;;;;;;29.08;9.70;;;;;;;8.02;48.41;101836.50;4972966;28;20037;-63
2024/01/19 09:34:12;;;;;;;23.23;9.15;;;;;;;8.08;47.44;101835.28;4972953;28;20046;-64
2024/01/19 09:36:38;;;;;;;28.38;11.38;;;;;;;8.10;47.10;101839.56;4973076;28;20439;-64
2024/01/19 09:39:04;;;;;;;24.10;10.77;;;;;;;8.12;46.96;101836.84;4973016;28;20034;-63
2024/01/19 09:41:39;;;;;;;29.75;10.25;;;;;;;8.24;47.48;101844.09;4974301;28;20390;-63
2024/01/19 09:44:09;;;;;;;25.83;10.23;;;;;;;8.24;47.11;101852.13;4973003;28;20046;-64
2024/01/19 09:46:58;;;;;;;26.27;9.93;;;;;;;8.31;47.21;101858.00;4974116;28;20041;-63
2024/01/19 09:49:34;;;;;;;28.00;12.57;;;;;;;8.27;46.98;101859.97;4973425;28;20056;-63
2024/01/19 09:52:03;;;;;;;38.67;14.13;;;;;;;8.33;47.15;101875.63;4972424;28;20039;-63
2024/01/19 09:54:32;;;;;;;32.58;11.73;;;;;;;8.35;46.45;101876.41;4972650;28;20046;-63
2024/01/19 09:57:00;;;;;;;39.03;12.65;;;;;;;8.42;46.66;101872.44;4972607;28;20046;-64
2024/01/19 09:59:28;;;;;;;47.47;15.18;;;;;;;8.56;46.54;101885.84;4972786;28;20038;-64
2024/01/19 10:01:54;;;;;;;39.47;14.35;;;;;;;8.66;47.15;101892.34;4972565;28;20205;-63
2024/01/19 10:04:20;;;;;;;43.20;14.80;;;;;;;8.69;47.02;101886.81;4959055;28;20039;-64
2024/01/19 10:06:46;;;;;;;42.67;13.95;;;;;;;8.74;46.58;101902.56;4960003;28;20058;-64
2024/01/19 10:09:12;;;;;;;54.05;15.63;;;;;;;8.75;46.65;101888.28;4976071;28;20525;-63
2024/01/19 10:11:37;;;;;;;37.92;14.20;;;;;;;8.83;46.67;101901.16;4977237;28;20042;-63
2024/01/19 10:14:02;;;;;;;36.90;13.73;;;;;;;9.00;46.68;101901.00;4976052;28;20046;-64
2024/01/19 10:16:28;;;;;;;59.30;19.52;;;;;;;9.17;46.54;101895.50;4977177;28;20516;-63
2024/01/19 10:18:55;;;;;;;46.95;15.35;;;;;;;9.26;46.48;101897.63;4976069;28;20069;-63
2024/01/19 10:21:27;;;;;;;35.83;13.82;;;;;;;9.29;46.30;101908.13;4975934;28;20469;-63
2024/01/19 10:24:14;;;;;;;69.43;21.00;;;;;;;9.36;46.58;101920.16;4959701;28;20038;-64
2024/01/19 10:26:40;;;;;;;38.95;14.52;;;;;;;9.47;46.52;101917.66;4975526;28;20498;-63
2024/01/19 10:29:09;;;;;;;46.72;13.90;;;;;;;9.54;46.21;101924.38;4975683;28;20058;-63
2024/01/19 10:31:35;;;;;;;64.97;18.92;;;;;;;9.70;46.42;101926.94;4976923;28;20065;-64
2024/01/19 10:34:00;;;;;;;33.95;13.52;;;;;;;9.75;46.11;101938.19;4975764;28;20495;-64
2024/01/19 10:36:26;;;;;;;44.42;16.88;;;;;;;9.87;46.33;101932.06;4975616;28;20443;-63
2024/01/19 10:38:52;;;;;;;41.70;14.18;;;;;;;10.01;46.02;101925.84;4975559;28;20097;-64
2024/01/19 10:41:24;;;;;;;30.48;12.57;;;;;;;10.12;45.88;101926.88;4975868;28;20438;-63
2024/01/19 10:43:49;;;;;;;51.20;17.52;;;;;;;10.13;45.78;101920.59;4976717;28;20494;-65
2024/01/19 10:46:19;;;;;;;27.65;12.23;;;;;;;10.26;45.90;101928.69;4976659;28;20041;-64
2024/01/19 10:48:46;;;;;;;28.45;12.48;;;;;;;10.36;45.71;101927.09;4976491;28;20461;-64
2024/01/19 10:51:13;;;;;;;36.17;12.77;;;;;;;10.43;45.69;101921.28;4959613;28;20078;-64
2024/01/19 10:53:38;;;;;;;25.98;11.00;;;;;;;10.57;45.60;101920.34;4975483;28;20030;-64
2024/01/19 10:56:04;;;;;;;28.95;11.93;;;;;;;10.72;45.45;101926.50;4974958;28;20031;-64
2024/01/19 10:58:32;;;;;;;24.55;10.73;;;;;;;10.79;45.56;101923.31;4974987;28;20027;-64
2024/01/19 11:01:13;;;;;;;26.45;11.50;;;;;;;10.90;45.66;101918.06;4976687;28;20363;-63
2024/01/19 11:03:39;;;;;;;19.90;11.25;;;;;;;10.98;44.88;101922.91;4975028;28;20047;-64
2024/01/19 11:06:04;;;;;;;23.17;9.73;;;;;;;11.08;44.85;101932.03;4975250;28;20529;-64
2024/01/19 11:08:31;;;;;;;27.42;9.70;;;;;;;11.14;45.16;101920.88;4976563;28;20045;-63
2024/01/19 11:10:57;;;;;;;26.30;9.88;;;;;;;11.26;45.71;101935.25;4975265;28;20035;-64
2024/01/19 11:13:23;;;;;;;27.05;11.25;;;;;;;11.35;45.56;101934.63;4976515;28;20057;-64
2024/01/19 11:15:50;;;;;;;23.25;9.02;;;;;;;11.37;45.38;101920.13;4974500;28;20073;-64